createdAt,value
2024-03-13T00:01:04.633Z,93.50
2024-03-13T00:03:33.249Z,93.50
2024-03-13T00:06:00.280Z,93.70
2024-03-13T00:08:27.969Z,93.70
2024-03-13T00:10:54.818Z,93.80
2024-03-13T00:13:23.423Z,93.40
2024-03-13T00:15:50.604Z,93.40
2024-03-13T00:18:17.577Z,93.80
2024-03-13T00:20:44.157Z,93.30
2024-03-13T00:23:10.965Z,93.40
2024-03-13T00:25:37.547Z,93.50
2024-03-13T00:28:04.619Z,93.50
2024-03-13T00:30:31.328Z,93.60
2024-03-13T00:32:57.989Z,93.40
2024-03-13T00:35:25.187Z,93.40
2024-03-13T00:37:51.900Z,93.50
2024-03-13T00:40:18.666Z,93.70
2024-03-13T00:42:45.500Z,93.40
2024-03-13T00:45:12.766Z,93.10
2024-03-13T00:47:40.017Z,93.30
2024-03-13T00:50:09.060Z,93.60
2024-03-13T00:52:37.658Z,93.60
2024-03-13T00:55:04.651Z,93.60
2024-03-13T00:57:31.379Z,93.70
2024-03-13T00:59:59.505Z,94.00
2024-03-13T01:02:26.084Z,93.80
2024-03-13T01:04:55.674Z,93.90
2024-03-13T01:07:23.392Z,94.10
2024-03-13T01:09:51.066Z,94.10
2024-03-13T01:12:20.515Z,94.20
2024-03-13T01:14:47.387Z,94.00
2024-03-13T01:17:13.960Z,94.10
2024-03-13T01:19:40.594Z,94.10
2024-03-13T01:22:11.407Z,94.00
2024-03-13T01:24:39.592Z,94.10
2024-03-13T01:27:06.408Z,94.00
2024-03-13T01:29:33.034Z,93.80
2024-03-13T01:31:59.842Z,93.90
2024-03-13T01:34:27.045Z,93.80
2024-03-13T01:37:12.570Z,94.00
2024-03-13T01:39:39.691Z,94.10
2024-03-13T01:42:24.716Z,94.00
2024-03-13T01:45:27.394Z,94.10
2024-03-13T01:48:14.859Z,94.30
2024-03-13T01:51:02.246Z,94.10
2024-03-13T01:53:47.595Z,93.90
2024-03-13T01:56:26.037Z,94.00
2024-03-13T01:59:04.498Z,93.90
2024-03-13T02:01:50.265Z,94.20
2024-03-13T02:04:17.394Z,94.20
2024-03-13T02:06:46.563Z,94.10
2024-03-13T02:09:13.180Z,94.10
2024-03-13T02:11:39.800Z,94.20
2024-03-13T02:14:06.651Z,94.20
2024-03-13T02:16:33.269Z,94.20
2024-03-13T02:19:01.565Z,94.40
2024-03-13T02:21:28.454Z,94.60
2024-03-13T02:23:57.802Z,94.60
2024-03-13T02:26:26.061Z,94.80
2024-03-13T02:28:53.318Z,94.80
2024-03-13T02:31:20.678Z,95.00
2024-03-13T02:33:47.436Z,94.80
2024-03-13T02:36:14.487Z,94.80
2024-03-13T02:38:41.782Z,94.80
2024-03-13T02:41:08.493Z,94.90
2024-03-13T02:43:37.795Z,95.10
2024-03-13T02:46:04.459Z,95.00
2024-03-13T02:48:31.227Z,95.20
2024-03-13T02:50:57.925Z,95.30
2024-03-13T02:53:24.501Z,95.50
2024-03-13T02:55:53.851Z,95.70
2024-03-13T02:58:20.683Z,95.70
2024-03-13T03:00:47.386Z,95.70
2024-03-13T03:03:14.576Z,95.90
2024-03-13T03:05:41.348Z,95.60
2024-03-13T03:08:08.213Z,95.70
2024-03-13T03:10:34.879Z,96.10
2024-03-13T03:13:01.531Z,95.60
2024-03-13T03:15:30.193Z,95.60
2024-03-13T03:17:56.869Z,95.70
2024-03-13T03:20:24.437Z,95.60
2024-03-13T03:22:51.031Z,95.50
2024-03-13T03:25:17.694Z,95.60
2024-03-13T03:27:44.374Z,95.70
2024-03-13T03:30:12.931Z,95.70
2024-03-13T03:32:41.008Z,96.00
2024-03-13T03:35:08.311Z,95.70
2024-03-13T03:37:34.876Z,95.60
2024-03-13T03:40:01.983Z,95.70
2024-03-13T03:42:30.464Z,95.50
2024-03-13T03:44:57.067Z,95.60
2024-03-13T03:47:23.668Z,95.60
2024-03-13T03:49:50.220Z,95.80
2024-03-13T03:52:16.855Z,96.00
2024-03-13T03:54:43.425Z,96.00
2024-03-13T03:57:11.205Z,96.00
2024-03-13T03:59:39.470Z,95.90
2024-03-13T04:02:06.279Z,96.00
2024-03-13T04:04:33.570Z,96.20
2024-03-13T04:07:00.732Z,96.50
2024-03-13T04:09:27.356Z,96.30
2024-03-13T04:11:53.980Z,96.40
2024-03-13T04:14:20.607Z,96.40
2024-03-13T04:16:47.165Z,96.30
2024-03-13T04:19:13.864Z,96.20
2024-03-13T04:21:41.500Z,96.30
2024-03-13T04:24:11.010Z,96.50
2024-03-13T04:26:46.990Z,96.60
2024-03-13T04:29:13.695Z,96.50
2024-03-13T04:31:40.824Z,96.50
2024-03-13T04:34:11.224Z,96.60
2024-03-13T04:36:41.611Z,96.60
2024-03-13T04:39:08.837Z,96.60
2024-03-13T04:41:40.330Z,96.70
2024-03-13T04:44:10.467Z,96.80
2024-03-13T04:46:38.202Z,96.70
2024-03-13T04:49:05.041Z,96.60
2024-03-13T04:51:31.819Z,96.50
2024-03-13T04:53:58.500Z,96.60
2024-03-13T04:56:25.089Z,96.50
2024-03-13T04:58:52.692Z,96.20
2024-03-13T05:01:20.094Z,96.20
2024-03-13T05:03:47.723Z,96.40
2024-03-13T05:06:14.605Z,96.40
2024-03-13T05:08:41.724Z,96.40
2024-03-13T05:11:10.467Z,96.50
2024-03-13T05:13:39.772Z,96.70
2024-03-13T05:16:07.351Z,96.70
2024-03-13T05:18:35.733Z,96.70
2024-03-13T05:21:02.470Z,96.70
2024-03-13T05:23:29.046Z,96.60
2024-03-13T05:25:56.713Z,96.40
2024-03-13T05:28:23.868Z,96.90
2024-03-13T05:30:50.721Z,96.70
2024-03-13T05:33:17.658Z,96.70
2024-03-13T05:35:44.240Z,96.80
2024-03-13T05:38:11.830Z,96.80
2024-03-13T05:40:38.589Z,96.70
2024-03-13T05:43:05.436Z,96.60
2024-03-13T05:45:34.912Z,96.70
2024-03-13T05:48:03.131Z,96.90
2024-03-13T05:50:29.833Z,96.90
2024-03-13T05:52:56.479Z,96.80
2024-03-13T05:55:23.127Z,96.80
2024-03-13T05:57:49.940Z,96.80
2024-03-13T06:00:19.175Z,96.90
2024-03-13T06:02:45.790Z,96.80
2024-03-13T06:05:18.646Z,96.60
2024-03-13T06:07:45.365Z,96.60
2024-03-13T06:10:12.497Z,96.60
2024-03-13T06:12:39.775Z,96.80
2024-03-13T06:15:13.754Z,97.00
2024-03-13T06:17:43.729Z,97.00
2024-03-13T06:20:14.657Z,97.10
2024-03-13T06:22:42.286Z,97.10
2024-03-13T06:25:09.822Z,96.90
2024-03-13T06:27:37.292Z,97.00
2024-03-13T06:30:04.469Z,96.90
2024-03-13T06:32:31.296Z,96.90
2024-03-13T06:35:05.497Z,96.90
2024-03-13T06:37:36.616Z,96.90
2024-03-13T06:40:04.889Z,97.20
2024-03-13T06:42:32.252Z,97.30
2024-03-13T06:44:59.042Z,97.10
2024-03-13T06:47:25.653Z,97.00
2024-03-13T06:49:52.262Z,97.00
2024-03-13T06:52:19.017Z,97.00
2024-03-13T06:54:45.629Z,97.10
2024-03-13T06:57:13.272Z,97.20
2024-03-13T06:59:40.568Z,97.10
2024-03-13T07:02:11.354Z,96.90
2024-03-13T07:04:38.167Z,97.00
2024-03-13T07:07:05.436Z,97.20
2024-03-13T07:09:32.945Z,97.20
2024-03-13T07:11:59.557Z,97.10
2024-03-13T07:14:26.479Z,97.10
2024-03-13T07:16:53.321Z,96.90
2024-03-13T07:19:21.224Z,97.00
2024-03-13T07:21:48.459Z,97.00
2024-03-13T07:24:15.391Z,96.90
2024-03-13T07:26:43.185Z,96.90
2024-03-13T07:29:10.580Z,97.20
2024-03-13T07:31:40.381Z,97.00
2024-03-13T07:34:10.943Z,96.90
2024-03-13T07:36:38.981Z,97.00
2024-03-13T07:39:11.398Z,97.00
2024-03-13T07:41:38.246Z,97.20
2024-03-13T07:44:04.936Z,97.20
2024-03-13T07:46:31.530Z,97.10
2024-03-13T07:48:58.216Z,96.90
2024-03-13T07:51:24.842Z,97.00
2024-03-13T07:53:51.952Z,97.10
2024-03-13T07:56:19.329Z,97.10
2024-03-13T07:58:45.948Z,96.90
2024-03-13T08:01:12.906Z,96.90
2024-03-13T08:03:39.515Z,97.10
2024-03-13T09:06:25.713Z,97.10
2024-03-13T09:08:52.622Z,97.20
2024-03-13T09:11:20.146Z,96.90
2024-03-13T09:13:47.262Z,97.00
2024-03-13T09:16:15.175Z,96.90
2024-03-13T09:18:42.856Z,97.10
2024-03-13T09:21:10.561Z,96.90
2024-03-13T09:23:37.303Z,96.70
2024-03-13T09:26:04.148Z,96.60
2024-03-13T09:28:31.006Z,96.90
2024-03-13T09:30:57.636Z,96.90
2024-03-13T09:33:24.513Z,96.90
2024-03-13T09:35:53.443Z,97.00
2024-03-13T09:38:20.284Z,96.90
2024-03-13T09:40:47.399Z,96.90
2024-03-13T09:43:19.671Z,96.80
2024-03-13T09:45:48.995Z,96.90
2024-03-13T09:48:16.446Z,96.50
2024-03-13T09:50:49.753Z,96.60
2024-03-13T09:53:22.645Z,96.50
2024-03-13T09:55:50.050Z,96.50
2024-03-13T09:58:17.088Z,96.60
2024-03-13T10:00:44.621Z,96.80
2024-03-13T10:03:23.329Z,96.50
2024-03-13T10:05:57.704Z,96.50
2024-03-13T10:08:25.755Z,96.60
2024-03-13T10:10:54.182Z,96.70
2024-03-13T10:13:21.383Z,96.60
2024-03-13T10:15:49.592Z,96.70
2024-03-13T10:18:20.817Z,96.50
2024-03-13T10:20:59.528Z,96.60
2024-03-13T10:23:30.177Z,96.70
2024-03-13T10:25:58.238Z,96.90
2024-03-13T10:28:27.111Z,96.90
2024-03-13T10:30:57.342Z,96.90
2024-03-13T10:33:24.224Z,97.10
2024-03-13T10:35:51.154Z,97.00
2024-03-13T10:38:18.119Z,97.00
2024-03-13T10:40:45.169Z,97.20
2024-03-13T10:43:12.533Z,97.20
2024-03-13T10:45:43.555Z,97.20
2024-03-13T10:48:12.912Z,97.20
2024-03-13T10:50:40.600Z,97.20
2024-03-13T10:53:07.455Z,97.00
2024-03-13T10:55:36.363Z,97.30
2024-03-13T10:58:04.385Z,96.90
2024-03-13T11:00:31.157Z,96.70
2024-03-13T11:02:59.000Z,96.60
2024-03-13T11:05:26.933Z,96.20
2024-03-13T11:07:53.709Z,96.50
2024-03-13T11:10:23.608Z,96.40
2024-03-13T11:12:50.742Z,96.40
2024-03-13T11:15:24.668Z,96.30
2024-03-13T11:18:01.031Z,96.40
2024-03-13T11:20:38.236Z,96.60
2024-03-13T11:23:13.636Z,96.40
2024-03-13T11:25:42.678Z,96.60
2024-03-13T11:28:21.209Z,96.50
2024-03-13T11:30:49.414Z,96.60
2024-03-13T11:33:16.357Z,96.60
2024-03-13T11:35:43.515Z,96.50
2024-03-13T11:38:11.522Z,96.40
2024-03-13T11:40:38.607Z,96.20
2024-03-13T11:43:08.165Z,96.30
2024-03-13T11:45:45.600Z,96.20
2024-03-13T11:48:19.985Z,96.50
2024-03-13T11:51:01.979Z,96.10
2024-03-13T11:53:32.722Z,95.90
2024-03-13T11:56:01.048Z,95.90
2024-03-13T11:58:32.354Z,96.20
2024-03-13T12:01:00.492Z,96.20
2024-03-13T12:03:43.941Z,96.40
2024-03-13T12:06:22.995Z,96.20
2024-03-13T12:08:55.855Z,95.90
2024-03-13T12:11:22.802Z,95.90
2024-03-13T12:13:50.123Z,95.60
2024-03-13T12:16:17.831Z,95.70
2024-03-13T12:18:51.251Z,95.80
2024-03-13T12:21:18.296Z,95.50
2024-03-13T12:23:46.509Z,95.60
2024-03-13T12:26:13.251Z,95.50
2024-03-13T12:28:40.253Z,95.50
2024-03-13T12:31:11.510Z,95.50
2024-03-13T12:33:39.216Z,95.30
2024-03-13T12:36:07.821Z,95.60
2024-03-13T12:38:38.570Z,95.60
2024-03-13T12:41:06.756Z,95.70
2024-03-13T12:43:33.504Z,95.60
2024-03-13T12:46:03.200Z,95.70
2024-03-13T12:48:34.230Z,95.60
2024-03-13T12:51:04.561Z,95.60
2024-03-13T12:53:31.584Z,95.50
2024-03-13T12:55:58.958Z,95.40
2024-03-13T12:58:30.468Z,95.50
2024-03-13T13:00:57.660Z,95.60
2024-03-13T13:03:24.418Z,95.50
2024-03-13T13:05:51.171Z,95.50
2024-03-13T13:08:22.641Z,95.70
2024-03-13T13:10:52.541Z,95.70
2024-03-13T13:13:19.308Z,95.80
2024-03-13T13:15:48.662Z,95.80
2024-03-13T13:18:15.689Z,95.50
2024-03-13T13:20:42.540Z,95.40
2024-03-13T13:23:10.900Z,95.30
2024-03-13T13:25:38.548Z,95.10
2024-03-13T13:28:06.091Z,95.00
2024-03-13T13:30:35.607Z,94.90
2024-03-13T13:33:04.178Z,94.90
2024-03-13T13:35:31.041Z,95.00
2024-03-13T13:38:00.032Z,94.90
2024-03-13T13:40:26.818Z,95.00
2024-03-13T13:42:55.447Z,95.10
2024-03-13T13:45:24.464Z,95.10
2024-03-13T13:47:55.283Z,95.10
2024-03-13T13:50:22.676Z,95.10
2024-03-13T13:52:49.489Z,95.10
2024-03-13T13:55:17.595Z,95.00
2024-03-13T13:57:51.240Z,94.90
2024-03-13T14:00:20.770Z,94.90
2024-03-13T14:02:48.074Z,94.60
2024-03-13T14:05:15.162Z,94.50
2024-03-13T14:07:42.003Z,94.40
2024-03-13T14:10:11.949Z,94.50
2024-03-13T14:12:39.340Z,94.50
2024-03-13T14:15:11.118Z,94.60
2024-03-13T14:17:38.396Z,94.90
2024-03-13T14:20:13.274Z,94.70
2024-03-13T14:22:43.372Z,94.90
2024-03-13T14:25:10.142Z,94.80
2024-03-13T14:27:36.924Z,94.60
2024-03-13T14:30:04.145Z,94.80
2024-03-13T14:32:31.258Z,94.60
2024-03-13T14:35:06.120Z,94.70
2024-03-13T14:37:34.515Z,94.60
2024-03-13T14:40:04.624Z,94.60
2024-03-13T14:42:35.792Z,94.20
2024-03-13T14:45:05.096Z,93.90
2024-03-13T14:47:32.346Z,94.00
2024-03-13T14:49:59.471Z,94.10
2024-03-13T14:52:26.326Z,94.10
2024-03-13T14:54:53.355Z,94.50
2024-03-13T14:57:20.947Z,94.30
2024-03-13T14:59:47.702Z,94.00
2024-03-13T15:02:14.333Z,93.90
2024-03-13T15:04:40.979Z,93.90
2024-03-13T15:07:11.044Z,93.90
2024-03-13T15:09:42.148Z,94.00
2024-03-13T15:12:15.283Z,93.90
2024-03-13T15:14:43.728Z,93.70
2024-03-13T15:17:11.061Z,93.70
2024-03-13T15:19:43.079Z,93.70
2024-03-13T15:22:10.080Z,93.60
2024-03-13T15:24:38.194Z,93.70
2024-03-13T15:27:05.058Z,93.80
2024-03-13T15:29:33.806Z,93.90
2024-03-13T15:32:00.539Z,94.00
2024-03-13T15:34:27.146Z,94.10
2024-03-13T15:36:53.794Z,93.90
2024-03-13T15:39:20.905Z,93.90
2024-03-13T15:41:47.892Z,94.00
2024-03-13T15:44:15.387Z,94.00
2024-03-13T15:46:45.176Z,94.10
2024-03-13T15:49:12.602Z,94.20
2024-03-13T15:51:39.858Z,94.20
2024-03-13T15:54:06.736Z,94.10
2024-03-13T15:56:33.367Z,94.00
2024-03-13T15:58:59.940Z,94.10
2024-03-13T16:01:26.541Z,94.00
2024-03-13T16:03:53.178Z,94.00
2024-03-13T16:06:22.411Z,93.70
2024-03-13T16:08:59.250Z,93.70
2024-03-13T16:11:28.115Z,93.60
2024-03-13T16:13:56.864Z,93.50
2024-03-13T16:16:27.004Z,93.60
2024-03-13T16:18:53.833Z,93.50
2024-03-13T16:21:20.686Z,93.50
2024-03-13T16:23:47.329Z,93.40
2024-03-13T16:26:17.694Z,93.30
2024-03-13T16:28:46.560Z,93.20
2024-03-13T16:31:16.229Z,93.20
2024-03-13T16:33:45.118Z,93.10
2024-03-13T16:36:12.041Z,93.30
2024-03-13T16:38:38.846Z,93.00
2024-03-13T16:41:05.580Z,93.00
2024-03-13T16:43:33.337Z,92.80
2024-03-13T16:46:00.598Z,92.80
2024-03-13T16:48:27.252Z,92.80
2024-03-13T16:50:56.293Z,92.90
2024-03-13T16:53:23.792Z,92.70
2024-03-13T16:55:50.391Z,92.70
2024-03-13T16:58:17.013Z,92.60
2024-03-13T17:00:43.902Z,92.80
2024-03-13T17:03:10.897Z,92.60
2024-03-13T17:05:37.666Z,92.50
2024-03-13T17:08:05.260Z,92.50
2024-03-13T17:10:31.968Z,92.60
2024-03-13T17:12:58.542Z,92.50
2024-03-13T17:15:25.383Z,92.60
2024-03-13T17:17:53.752Z,92.50
2024-03-13T17:20:22.315Z,92.50
2024-03-13T17:22:50.462Z,92.50
2024-03-13T17:25:19.061Z,92.60
2024-03-13T17:27:47.764Z,92.50
2024-03-13T17:30:14.664Z,92.60
2024-03-13T17:32:42.810Z,92.70
2024-03-13T17:35:12.437Z,92.80
2024-03-13T17:37:39.587Z,92.90
2024-03-13T17:40:08.665Z,92.80
2024-03-13T17:42:35.724Z,92.90
2024-03-13T17:45:02.560Z,92.90
2024-03-13T17:47:29.766Z,92.90
2024-03-13T17:49:56.579Z,93.00
2024-03-13T17:52:23.221Z,93.00
2024-03-13T17:54:52.917Z,92.90
2024-03-13T17:57:19.634Z,92.90
2024-03-13T17:59:48.407Z,92.90
2024-03-13T18:02:15.382Z,92.90
2024-03-13T18:04:42.431Z,92.90
2024-03-13T18:07:12.063Z,93.00
2024-03-13T18:09:44.337Z,92.80
2024-03-13T18:12:11.645Z,92.80
2024-03-13T18:14:38.373Z,92.90
2024-03-13T18:17:05.823Z,92.70
2024-03-13T18:19:32.613Z,92.70
2024-03-13T18:21:59.249Z,92.70
2024-03-13T18:24:26.305Z,92.60
2024-03-13T18:26:53.098Z,92.60
2024-03-13T18:29:19.736Z,92.70
2024-03-13T18:31:46.291Z,92.60
2024-03-13T18:34:14.444Z,92.60
2024-03-13T18:36:41.517Z,92.70
2024-03-13T18:39:08.627Z,92.80
2024-03-13T18:41:38.901Z,92.60
2024-03-13T18:44:05.560Z,92.50
2024-03-13T18:46:32.194Z,92.50
2024-03-13T18:48:59.807Z,92.50
2024-03-13T18:51:26.868Z,92.60
2024-03-13T18:53:53.796Z,92.80
2024-03-13T18:56:20.791Z,92.80
2024-03-13T18:58:49.780Z,92.80
2024-03-13T19:01:16.487Z,93.10
2024-03-13T19:03:43.167Z,93.10
2024-03-13T19:06:09.841Z,93.30
2024-03-13T19:08:36.557Z,93.00
2024-03-13T19:11:04.896Z,92.90
2024-03-13T19:13:31.550Z,93.00
2024-03-13T19:16:01.379Z,93.10
2024-03-13T19:18:28.064Z,93.10
2024-03-13T19:20:55.187Z,93.20
2024-03-13T19:23:21.832Z,93.10
2024-03-13T19:25:49.906Z,93.10
2024-03-13T19:28:16.803Z,92.80
2024-03-13T19:30:44.255Z,92.70
2024-03-13T19:33:11.031Z,92.60
2024-03-13T19:35:39.373Z,92.60
2024-03-13T19:38:06.024Z,92.40
2024-03-13T19:40:32.659Z,92.40
2024-03-13T19:43:01.402Z,92.40
2024-03-13T19:45:28.221Z,92.40
2024-03-13T19:47:54.953Z,92.30
2024-03-13T19:50:21.642Z,92.40
2024-03-13T19:52:48.238Z,92.40
2024-03-13T19:55:15.737Z,92.30
2024-03-13T19:57:42.450Z,92.20
2024-03-13T20:00:14.884Z,92.50
2024-03-13T20:02:42.409Z,92.40
2024-03-13T20:05:09.055Z,92.40
2024-03-13T20:07:36.109Z,92.40
2024-03-13T20:10:03.179Z,92.30
2024-03-13T20:12:29.922Z,92.40
2024-03-13T20:14:59.639Z,92.40
2024-03-13T20:17:26.415Z,92.20
2024-03-13T20:19:54.554Z,92.20
2024-03-13T20:22:21.159Z,92.10
2024-03-13T20:24:48.140Z,92.00
2024-03-13T20:27:16.216Z,92.00
2024-03-13T20:29:45.589Z,92.20
2024-03-13T20:32:12.319Z,92.10
2024-03-13T20:34:38.992Z,92.30
2024-03-13T20:37:05.604Z,92.40
2024-03-13T20:39:32.373Z,92.50
2024-03-13T20:41:59.089Z,92.70
2024-03-13T20:44:27.699Z,92.60
2024-03-13T20:46:55.419Z,92.50
2024-03-13T20:49:22.709Z,92.60
2024-03-13T20:51:49.288Z,92.40
2024-03-13T20:54:15.949Z,92.40
2024-03-13T20:56:44.198Z,92.40
2024-03-13T20:59:13.481Z,92.50
2024-03-13T21:01:40.149Z,92.60
2024-03-13T21:04:06.763Z,92.60
2024-03-13T21:06:33.398Z,92.60
2024-03-13T21:09:01.245Z,92.60
2024-03-13T21:11:28.437Z,92.60
2024-03-13T21:13:56.322Z,92.50
2024-03-13T21:16:23.848Z,92.40
2024-03-13T21:18:51.405Z,92.40
2024-03-13T21:21:22.462Z,92.40
2024-03-13T21:23:53.346Z,92.30
2024-03-13T21:26:20.098Z,92.20
2024-03-13T21:28:47.623Z,92.20
2024-03-13T21:31:14.410Z,92.20
2024-03-13T21:33:41.934Z,92.10
2024-03-13T21:36:08.829Z,92.00
2024-03-13T21:38:37.340Z,92.10
2024-03-13T21:41:08.936Z,92.00
2024-03-13T21:43:36.055Z,91.70
2024-03-13T21:46:02.925Z,91.70
2024-03-13T21:48:29.849Z,91.80
2024-03-13T21:50:56.593Z,91.70
2024-03-13T21:53:23.439Z,91.90
2024-03-13T21:55:50.658Z,91.70
2024-03-13T21:58:17.271Z,91.50
2024-03-13T22:00:44.691Z,91.50
2024-03-13T22:03:11.525Z,91.50
2024-03-13T22:05:38.284Z,91.40
2024-03-13T22:08:05.461Z,91.10
2024-03-13T22:10:32.165Z,91.30
2024-03-13T22:12:58.781Z,91.20
2024-03-13T22:15:25.452Z,91.20
2024-03-13T22:17:52.335Z,91.00
2024-03-13T22:20:19.119Z,91.10
2024-03-13T22:22:48.132Z,91.00
2024-03-13T22:25:15.837Z,91.20
2024-03-13T22:27:43.220Z,91.20
2024-03-13T22:30:10.413Z,91.30
2024-03-13T22:32:37.281Z,91.10
2024-03-13T22:35:06.743Z,91.20
2024-03-13T22:37:33.485Z,91.20
2024-03-13T22:40:00.166Z,91.30
2024-03-13T22:42:26.812Z,91.20
2024-03-13T22:44:53.547Z,91.20
2024-03-13T22:47:20.231Z,91.50
2024-03-13T22:49:46.835Z,91.60
2024-03-13T22:52:13.483Z,91.50
2024-03-13T22:54:40.086Z,91.40
2024-03-13T22:57:07.029Z,91.40
2024-03-13T22:59:33.726Z,91.40
2024-03-13T23:02:01.542Z,91.50
2024-03-13T23:04:28.138Z,91.50
2024-03-13T23:06:54.770Z,91.50
2024-03-13T23:09:21.417Z,91.50
2024-03-13T23:11:48.172Z,91.50
2024-03-13T23:14:15.234Z,91.70
2024-03-13T23:16:41.900Z,91.70
2024-03-13T23:19:08.835Z,91.50
2024-03-13T23:21:35.917Z,91.80
2024-03-13T23:24:03.635Z,91.80
2024-03-13T23:26:30.476Z,91.60
2024-03-13T23:28:59.396Z,91.50
2024-03-13T23:31:26.651Z,91.50
2024-03-13T23:33:53.690Z,91.40
2024-03-13T23:36:22.172Z,91.30
2024-03-13T23:38:49.271Z,91.20
2024-03-13T23:41:17.055Z,91.40
2024-03-13T23:43:46.850Z,91.50
2024-03-13T23:46:14.199Z,91.20
2024-03-13T23:48:41.047Z,91.20
2024-03-13T23:51:08.358Z,91.30
2024-03-13T23:53:35.178Z,91.30
2024-03-13T23:56:02.522Z,91.30
2024-03-13T23:58:29.161Z,91.20
